Terminal Aerodrome Forecast
Issued by NWS Topeka, KS

Home | Current Version | Previous Version | Text Only | Print | Product List | Glossary On
Versions: 1 2 3 4 5 6 7 8 9 10 11 12 13 14 15 16 17
000
FTUS43 KTOP 221720
TAFTOP
TAF
KTOP 221720Z 2218/2318 15011KT P6SM SCT060 SCT250
     FM230400 14008KT P6SM BKN250 WS010/18035KT
     FM231400 17012KT P6SM VCTS SCT025 BKN035CB=

USA.gov is the U.S. government's official web portal to all federal, state and local government web resources and services.